createdAt,value
2018-07-30T00:00:39.599Z,58.80
2018-07-30T00:02:44.525Z,58.90
2018-07-30T00:04:48.939Z,58.80
2018-07-30T00:06:53.435Z,58.80
2018-07-30T00:08:57.850Z,58.90
2018-07-30T00:11:02.343Z,59.00
2018-07-30T00:13:06.791Z,59.20
2018-07-30T00:15:11.212Z,59.20
2018-07-30T00:17:15.722Z,59.40
2018-07-30T00:19:20.148Z,59.40
2018-07-30T00:21:24.755Z,59.40
2018-07-30T00:23:29.200Z,59.60
2018-07-30T00:25:33.634Z,59.60
2018-07-30T00:27:38.078Z,59.70
2018-07-30T00:29:42.600Z,59.80
2018-07-30T00:31:47.049Z,59.80
2018-07-30T00:33:51.561Z,60.00
2018-07-30T00:35:56.623Z,59.90
2018-07-30T00:38:01.026Z,60.10
2018-07-30T00:40:06.029Z,60.20
2018-07-30T00:42:10.774Z,60.10
2018-07-30T00:44:15.189Z,60.30
2018-07-30T00:46:19.611Z,60.20
2018-07-30T00:48:24.103Z,60.30
2018-07-30T00:50:28.542Z,60.30
2018-07-30T00:52:32.966Z,60.20
2018-07-30T00:54:37.397Z,60.90
2018-07-30T00:56:41.858Z,60.30
2018-07-30T00:58:46.298Z,60.20
2018-07-30T01:00:53.353Z,60.30
2018-07-30T01:02:59.319Z,60.60
2018-07-30T01:05:05.499Z,60.40
2018-07-30T01:07:14.345Z,60.40
2018-07-30T01:09:21.175Z,60.60
2018-07-30T01:11:28.197Z,60.70
2018-07-30T01:13:34.262Z,60.70
2018-07-30T01:15:40.662Z,60.60
2018-07-30T01:17:49.210Z,60.70
2018-07-30T01:19:55.402Z,60.70
2018-07-30T01:22:01.701Z,60.70
2018-07-30T01:24:09.151Z,60.70
2018-07-30T01:26:19.098Z,60.70
2018-07-30T01:28:27.530Z,60.70
2018-07-30T01:30:34.075Z,60.80
2018-07-30T01:32:40.527Z,60.70
2018-07-30T01:34:48.660Z,60.70
2018-07-30T01:36:56.090Z,60.70
2018-07-30T01:39:03.186Z,60.60
2018-07-30T01:41:08.923Z,60.60
2018-07-30T01:43:16.206Z,60.60
2018-07-30T01:45:23.819Z,61.60
2018-07-30T01:47:29.554Z,60.70
2018-07-30T01:49:36.058Z,60.90
2018-07-30T01:55:52.331Z,61.10
2018-07-30T01:58:00.124Z,60.90
2018-07-30T02:00:06.670Z,61.00
2018-07-30T02:02:14.640Z,61.00
2018-07-30T02:04:21.963Z,61.00
2018-07-30T02:06:29.642Z,61.00
2018-07-30T02:08:35.953Z,61.00
2018-07-30T02:12:49.580Z,61.40
2018-07-30T02:14:56.514Z,61.00
2018-07-30T02:17:05.110Z,61.20
2018-07-30T02:19:12.227Z,61.10
2018-07-30T02:21:16.835Z,61.20
2018-07-30T02:23:21.319Z,61.30
2018-07-30T02:25:25.797Z,61.50
2018-07-30T02:27:31.430Z,61.50
2018-07-30T02:29:35.878Z,61.50
2018-07-30T02:31:40.659Z,61.70
2018-07-30T02:33:46.063Z,61.80
2018-07-30T02:35:51.666Z,61.90
2018-07-30T02:37:56.422Z,61.90
2018-07-30T02:40:00.919Z,61.80
2018-07-30T02:42:05.377Z,61.90
2018-07-30T02:44:09.839Z,62.00
2018-07-30T02:46:14.338Z,62.00
2018-07-30T02:48:18.893Z,62.10
2018-07-30T02:50:23.662Z,62.30
2018-07-30T02:52:28.074Z,62.20
2018-07-30T02:56:36.659Z,62.10
2018-07-30T02:58:41.119Z,62.20
2018-07-30T03:00:45.915Z,62.10
2018-07-30T03:02:50.377Z,62.30
2018-07-30T03:04:54.869Z,62.40
2018-07-30T03:06:59.344Z,62.40
2018-07-30T03:09:03.992Z,62.40
2018-07-30T03:11:08.465Z,62.40
2018-07-30T03:13:12.891Z,62.30
2018-07-30T03:15:17.430Z,62.20
2018-07-30T03:17:21.894Z,62.30
2018-07-30T03:19:26.310Z,62.30
2018-07-30T03:21:31.901Z,62.40
2018-07-30T03:23:36.366Z,62.40
2018-07-30T03:25:40.760Z,62.40
2018-07-30T03:27:45.178Z,62.30
2018-07-30T03:32:06.343Z,62.30
2018-07-30T03:34:12.063Z,62.80
2018-07-30T03:36:16.523Z,62.80
2018-07-30T03:38:21.077Z,62.80
2018-07-30T03:40:25.722Z,62.90
2018-07-30T03:42:30.205Z,62.90
2018-07-30T03:44:34.730Z,62.90
2018-07-30T03:46:39.174Z,63.10
2018-07-30T03:48:43.621Z,63.10
2018-07-30T03:50:48.086Z,63.00
2018-07-30T03:52:52.542Z,63.10
2018-07-30T03:54:56.975Z,63.20
2018-07-30T03:57:01.420Z,64.00
2018-07-30T03:59:05.989Z,63.20
2018-07-30T04:01:13.748Z,63.40
2018-07-30T04:03:20.912Z,63.50
2018-07-30T04:05:28.781Z,63.60
2018-07-30T04:07:35.700Z,63.50
2018-07-30T04:09:41.441Z,63.70
2018-07-30T04:11:47.761Z,63.60
2018-07-30T04:13:56.566Z,63.80
2018-07-30T04:16:01.130Z,63.80
2018-07-30T04:18:05.695Z,64.00
2018-07-30T04:20:10.154Z,64.00
2018-07-30T04:22:14.663Z,64.10
2018-07-30T04:24:19.131Z,64.20
2018-07-30T04:26:24.339Z,64.20
2018-07-30T04:28:29.630Z,64.10
2018-07-30T04:30:34.115Z,64.10
2018-07-30T04:32:38.627Z,64.10
2018-07-30T04:34:43.056Z,64.20
2018-07-30T04:36:49.437Z,64.10
2018-07-30T04:38:54.065Z,64.20
2018-07-30T04:40:58.515Z,64.10
2018-07-30T04:43:02.968Z,64.20
2018-07-30T04:45:07.400Z,64.90
2018-07-30T04:47:12.738Z,64.30
2018-07-30T04:49:17.171Z,64.40
2018-07-30T04:51:21.648Z,64.30
2018-07-30T04:53:26.090Z,64.30
2018-07-30T04:55:30.625Z,64.30
2018-07-30T04:57:35.040Z,64.20
2018-07-30T04:59:39.530Z,64.20
2018-07-30T05:01:43.964Z,64.20
2018-07-30T05:03:48.516Z,64.20
2018-07-30T05:05:53.043Z,64.20
2018-07-30T05:07:57.475Z,64.20
2018-07-30T05:10:01.922Z,64.20
2018-07-30T05:12:06.370Z,64.20
2018-07-30T05:14:10.838Z,64.00
2018-07-30T05:16:16.258Z,64.10
2018-07-30T05:18:20.714Z,64.10
2018-07-30T05:20:25.162Z,64.10
2018-07-30T05:22:29.746Z,64.20
2018-07-30T05:24:34.159Z,64.40
2018-07-30T05:26:38.590Z,64.30
2018-07-30T05:28:43.049Z,64.40
2018-07-30T05:30:47.463Z,64.60
2018-07-30T05:32:53.013Z,64.60
2018-07-30T05:34:57.469Z,64.80
2018-07-30T05:37:01.913Z,64.90
2018-07-30T05:39:09.825Z,65.00
2018-07-30T05:41:14.271Z,65.00
2018-07-30T05:43:18.722Z,65.20
2018-07-30T05:45:23.159Z,65.30
2018-07-30T05:47:27.665Z,65.30
2018-07-30T05:49:33.254Z,65.30
2018-07-30T05:51:37.716Z,65.50
2018-07-30T05:53:42.186Z,65.40
2018-07-30T05:55:46.753Z,65.30
2018-07-30T05:57:51.212Z,65.20
2018-07-30T05:59:55.699Z,65.20
2018-07-30T06:02:00.154Z,65.00
2018-07-30T06:04:04.690Z,64.90
2018-07-30T06:06:09.174Z,64.20
2018-07-30T06:08:14.262Z,64.90
2018-07-30T06:10:18.814Z,64.70
2018-07-30T06:12:23.908Z,64.50
2018-07-30T06:14:28.326Z,64.10
2018-07-30T06:16:32.813Z,63.70
2018-07-30T06:18:37.274Z,63.50
2018-07-30T06:20:41.820Z,63.50
2018-07-30T06:22:46.294Z,63.20
2018-07-30T06:24:51.817Z,63.20
2018-07-30T06:26:57.480Z,63.10
2018-07-30T06:29:02.023Z,63.00
2018-07-30T06:31:06.663Z,62.70
2018-07-30T06:33:11.146Z,62.90
2018-07-30T06:35:15.868Z,62.80
2018-07-30T06:37:23.456Z,62.90
2018-07-30T06:39:28.678Z,62.60
2018-07-30T06:41:35.150Z,62.60
2018-07-30T06:43:42.289Z,62.30
2018-07-30T06:45:51.953Z,62.00
2018-07-30T06:48:00.447Z,61.70
2018-07-30T06:52:09.130Z,61.60
2018-07-30T06:54:14.674Z,61.80
2018-07-30T06:56:19.115Z,61.20
2018-07-30T06:58:23.560Z,61.10
2018-07-30T07:00:27.987Z,60.90
2018-07-30T07:02:32.474Z,60.50
2018-07-30T07:04:37.242Z,60.20
2018-07-30T07:06:41.696Z,59.70
2018-07-30T07:08:46.130Z,59.50
2018-07-30T07:10:50.620Z,59.60
2018-07-30T07:12:55.098Z,60.30
2018-07-30T07:14:59.530Z,59.70
2018-07-30T07:17:03.952Z,60.00
2018-07-30T07:19:08.433Z,59.30
2018-07-30T07:21:12.908Z,58.90
2018-07-30T07:23:17.354Z,59.30
2018-07-30T07:27:29.983Z,58.70
2018-07-30T07:29:35.031Z,58.40
2018-07-30T07:31:39.571Z,60.50
2018-07-30T07:33:44.119Z,60.50
2018-07-30T07:35:48.654Z,60.60
2018-07-30T07:37:53.139Z,61.20
2018-07-30T07:39:58.216Z,61.20
2018-07-30T07:42:04.127Z,60.10
2018-07-30T07:44:08.745Z,59.10
2018-07-30T07:46:13.155Z,58.00
2018-07-30T07:48:17.641Z,57.00
2018-07-30T07:50:22.691Z,56.30
2018-07-30T07:52:30.578Z,56.10
2018-07-30T07:54:36.400Z,56.40
2018-07-30T07:56:40.855Z,55.80
2018-07-30T07:58:45.385Z,55.60
2018-07-30T08:02:54.029Z,55.60
2018-07-30T08:04:58.467Z,55.10
2018-07-30T08:07:02.963Z,55.50
2018-07-30T08:09:10.772Z,54.10
2018-07-30T08:11:15.237Z,53.80
2018-07-30T08:13:19.730Z,52.90
2018-07-30T08:15:24.191Z,52.60
2018-07-30T08:17:28.909Z,52.70
2018-07-30T08:19:33.639Z,52.10
2018-07-30T08:21:38.126Z,51.70
2018-07-30T08:23:42.841Z,51.20
2018-07-30T08:25:47.288Z,51.30
2018-07-30T08:27:51.789Z,50.70
2018-07-30T08:29:56.240Z,50.70
2018-07-30T08:34:04.924Z,49.80
2018-07-30T08:36:09.366Z,49.40
2018-07-30T08:38:13.841Z,49.70
2018-07-30T08:40:18.327Z,49.80
2018-07-30T08:44:27.022Z,47.50
2018-07-30T08:46:31.480Z,47.80
2018-07-30T08:48:35.959Z,47.90
2018-07-30T08:50:40.441Z,47.90
2018-07-30T08:52:44.926Z,47.90
2018-07-30T08:54:49.485Z,48.00
2018-07-30T08:58:58.066Z,47.50
2018-07-30T09:01:03.206Z,47.30
2018-07-30T09:03:07.663Z,47.70
2018-07-30T09:05:12.122Z,46.30
2018-07-30T09:07:16.595Z,46.30
2018-07-30T09:09:21.019Z,45.80
2018-07-30T09:11:25.486Z,45.80
2018-07-30T09:13:29.952Z,45.60
2018-07-30T09:15:35.066Z,45.10
2018-07-30T09:17:39.505Z,45.00
2018-07-30T09:19:43.955Z,44.60
2018-07-30T09:21:48.463Z,43.70
2018-07-30T09:23:52.911Z,43.70
2018-07-30T09:25:57.424Z,43.70
2018-07-30T09:30:07.274Z,43.10
2018-07-30T09:32:11.757Z,43.00
2018-07-30T09:34:16.295Z,42.70
2018-07-30T09:36:25.548Z,42.50
2018-07-30T09:38:30.029Z,42.30
2018-07-30T09:40:34.468Z,42.70
2018-07-30T09:42:39.339Z,42.90
2018-07-30T09:44:43.861Z,42.40
2018-07-30T09:48:53.526Z,41.70
2018-07-30T09:50:58.903Z,41.50
2018-07-30T09:53:03.606Z,41.20
2018-07-30T09:55:08.097Z,41.60
2018-07-30T09:57:12.553Z,41.00
2018-07-30T09:59:17.006Z,40.90
2018-07-30T10:01:26.759Z,40.50
2018-07-30T10:03:31.255Z,40.40
2018-07-30T10:05:35.720Z,39.60
2018-07-30T10:07:40.174Z,40.40
2018-07-30T10:09:44.629Z,39.70
2018-07-30T10:11:49.175Z,39.50
2018-07-30T10:13:53.965Z,38.90
2018-07-30T10:15:58.534Z,38.30
2018-07-30T10:18:03.684Z,38.00
2018-07-30T10:20:08.431Z,38.50
2018-07-30T10:22:12.870Z,38.10
2018-07-30T10:24:17.394Z,37.70
2018-07-30T10:26:21.874Z,37.40
2018-07-30T10:28:26.318Z,37.10
2018-07-30T10:30:30.874Z,37.10
2018-07-30T10:32:35.314Z,36.40
2018-07-30T10:36:43.923Z,36.20
2018-07-30T10:38:48.414Z,36.10
2018-07-30T10:45:09.326Z,35.50
2018-07-30T10:47:13.782Z,35.40
2018-07-30T10:49:18.246Z,35.10
2018-07-30T10:51:24.196Z,35.10
2018-07-30T10:53:28.662Z,35.10
2018-07-30T10:55:33.141Z,35.20
2018-07-30T10:57:37.599Z,35.30
2018-07-30T10:59:42.234Z,35.00
2018-07-30T11:01:46.843Z,34.70
2018-07-30T11:03:51.267Z,34.60
2018-07-30T11:05:55.666Z,34.30
2018-07-30T11:08:00.163Z,34.20
2018-07-30T11:10:05.139Z,34.20
2018-07-30T11:12:09.578Z,34.00
2018-07-30T11:14:14.073Z,34.40
2018-07-30T11:16:18.495Z,34.30
2018-07-30T11:18:24.085Z,34.30
2018-07-30T11:22:32.991Z,34.50
2018-07-30T11:24:38.178Z,33.20
2018-07-30T11:26:42.622Z,33.10
2018-07-30T11:28:47.684Z,33.30
2018-07-30T11:30:52.115Z,33.00
2018-07-30T11:32:57.310Z,32.70
2018-07-30T11:35:01.739Z,32.50
2018-07-30T11:37:06.214Z,32.20
2018-07-30T11:39:12.495Z,32.50
2018-07-30T11:41:16.927Z,32.60
2018-07-30T11:43:21.366Z,32.60
2018-07-30T11:45:25.898Z,32.70
2018-07-30T11:47:30.304Z,32.60
2018-07-30T11:49:35.858Z,32.30
2018-07-30T11:51:40.413Z,32.00
2018-07-30T11:53:44.830Z,31.90
2018-07-30T11:55:49.377Z,32.30
2018-07-30T11:59:57.946Z,31.70
2018-07-30T12:02:02.385Z,31.60
2018-07-30T12:04:06.830Z,31.70
2018-07-30T12:06:11.389Z,31.80
2018-07-30T12:08:15.791Z,31.20
2018-07-30T12:10:20.233Z,31.20
2018-07-30T12:12:24.650Z,31.20
2018-07-30T12:14:29.157Z,31.80
2018-07-30T12:16:33.782Z,31.40
2018-07-30T12:18:38.316Z,31.60
2018-07-30T12:20:42.818Z,31.10
2018-07-30T12:22:47.251Z,31.00
2018-07-30T12:24:51.694Z,30.90
2018-07-30T12:26:56.343Z,30.50
2018-07-30T12:29:05.971Z,30.60
2018-07-30T12:31:10.960Z,30.20
2018-07-30T12:33:18.757Z,29.90
2018-07-30T12:35:28.335Z,30.00
2018-07-30T12:37:33.569Z,29.60
2018-07-30T12:39:38.026Z,29.50
2018-07-30T12:41:42.501Z,29.70
2018-07-30T12:43:46.978Z,29.60
2018-07-30T12:45:51.528Z,29.60
2018-07-30T12:50:00.632Z,29.60
2018-07-30T12:52:05.274Z,29.60
2018-07-30T12:54:09.741Z,29.50
2018-07-30T12:56:14.222Z,29.30
2018-07-30T12:58:18.625Z,29.40
2018-07-30T13:00:23.087Z,29.80
2018-07-30T13:02:27.518Z,29.60
2018-07-30T13:04:31.979Z,29.50
2018-07-30T13:06:36.446Z,29.40
2018-07-30T13:08:40.917Z,29.50
2018-07-30T13:10:45.398Z,29.70
2018-07-30T13:12:49.882Z,29.30
2018-07-30T13:14:54.290Z,29.00
2018-07-30T13:16:58.759Z,28.90
2018-07-30T13:19:03.286Z,28.80
2018-07-30T13:21:07.883Z,28.70
2018-07-30T13:23:12.372Z,28.60
2018-07-30T13:25:17.079Z,29.00
2018-07-30T13:27:21.602Z,28.40
2018-07-30T13:29:26.085Z,28.70
2018-07-30T13:31:30.573Z,28.80
2018-07-30T13:33:35.978Z,28.70
2018-07-30T13:35:40.600Z,28.90
2018-07-30T13:37:45.767Z,28.80
2018-07-30T13:39:50.271Z,28.50
2018-07-30T13:41:54.755Z,28.50
2018-07-30T13:44:00.351Z,28.30
2018-07-30T13:46:04.890Z,28.60
2018-07-30T13:48:09.342Z,28.40
2018-07-30T13:50:13.786Z,28.70
2018-07-30T13:52:18.443Z,28.70
2018-07-30T13:54:22.970Z,28.60
2018-07-30T13:56:27.434Z,28.40
2018-07-30T13:58:31.917Z,28.40
2018-07-30T14:00:36.374Z,28.30
2018-07-30T14:04:45.448Z,28.60
2018-07-30T14:06:50.024Z,28.40
2018-07-30T14:10:58.764Z,28.60
2018-07-30T14:13:03.200Z,28.60
2018-07-30T14:15:09.130Z,28.70
2018-07-30T14:17:13.605Z,28.40
2018-07-30T14:19:18.035Z,28.80
2018-07-30T14:21:22.489Z,28.60
2018-07-30T14:23:26.961Z,28.70
2018-07-30T14:25:31.953Z,28.40
2018-07-30T14:27:36.427Z,28.50
2018-07-30T14:29:41.323Z,28.60
2018-07-30T14:31:45.786Z,28.60
2018-07-30T14:33:50.205Z,28.40
2018-07-30T14:35:54.732Z,28.50
2018-07-30T14:37:59.270Z,28.40
2018-07-30T14:40:13.768Z,28.50
2018-07-30T14:44:22.386Z,28.10
2018-07-30T14:46:26.866Z,28.50
2018-07-30T14:48:31.338Z,28.80
2018-07-30T14:50:35.860Z,29.00
2018-07-30T14:54:45.634Z,28.90
2018-07-30T14:56:50.185Z,29.20
2018-07-30T14:58:54.634Z,29.20
2018-07-30T15:00:59.085Z,28.50
2018-07-30T15:03:03.638Z,28.80
2018-07-30T15:05:08.129Z,29.00
2018-07-30T15:07:12.597Z,28.70
2018-07-30T15:09:17.129Z,28.70
2018-07-30T15:13:25.962Z,29.00
2018-07-30T15:15:30.408Z,29.50
2018-07-30T15:17:34.940Z,29.40
2018-07-30T15:19:39.390Z,29.30
2018-07-30T15:21:43.955Z,29.20
2018-07-30T15:25:52.693Z,29.10
2018-07-30T15:27:57.186Z,28.90
2018-07-30T15:30:01.795Z,28.60
2018-07-30T15:32:06.586Z,28.90
2018-07-30T15:34:11.034Z,28.60
2018-07-30T15:36:15.814Z,28.30
2018-07-30T15:38:20.354Z,28.10
2018-07-30T15:40:24.862Z,28.20
2018-07-30T15:42:29.374Z,28.10
2018-07-30T15:44:33.793Z,27.70
2018-07-30T15:46:38.268Z,27.50
2018-07-30T15:48:43.063Z,27.50
2018-07-30T15:50:47.461Z,27.80
2018-07-30T15:52:51.902Z,27.80
2018-07-30T15:54:56.480Z,28.60
2018-07-30T15:57:02.017Z,28.90
2018-07-30T15:59:06.659Z,29.00
2018-07-30T16:01:11.879Z,28.90
2018-07-30T16:03:16.401Z,28.90
2018-07-30T16:05:21.928Z,28.70
2018-07-30T16:07:26.469Z,28.90
2018-07-30T16:09:30.897Z,28.90
2018-07-30T16:11:35.529Z,29.10
2018-07-30T16:13:40.006Z,29.20
2018-07-30T16:15:44.982Z,30.10
2018-07-30T16:17:49.437Z,30.90
2018-07-30T16:21:58.300Z,30.90
2018-07-30T16:24:02.762Z,30.50
2018-07-30T16:26:07.534Z,30.40
2018-07-30T16:28:12.602Z,30.00
2018-07-30T16:30:17.481Z,30.00
2018-07-30T16:32:22.754Z,30.50
2018-07-30T16:34:27.594Z,29.50
2018-07-30T16:36:32.040Z,29.30
2018-07-30T16:38:36.562Z,29.00
2018-07-30T16:42:46.366Z,29.40
2018-07-30T16:44:50.867Z,29.70
2018-07-30T16:46:55.625Z,29.80
2018-07-30T16:49:00.022Z,30.00
2018-07-30T16:51:05.175Z,31.40
2018-07-30T16:53:09.778Z,31.80
2018-07-30T16:55:14.303Z,32.60
2018-07-30T16:57:18.951Z,32.50
2018-07-30T16:59:23.832Z,33.20
2018-07-30T17:01:28.315Z,33.30
2018-07-30T17:03:33.018Z,33.60
2018-07-30T17:05:37.615Z,33.40
2018-07-30T17:07:42.085Z,33.70
2018-07-30T17:09:47.373Z,34.50
2018-07-30T17:11:51.847Z,34.40
2018-07-30T17:13:56.320Z,34.80
2018-07-30T17:16:00.888Z,35.60
2018-07-30T17:18:05.541Z,35.90
2018-07-30T17:20:12.904Z,36.20
2018-07-30T17:22:17.534Z,36.20
2018-07-30T17:24:21.978Z,35.50
2018-07-30T17:26:26.512Z,36.40
2018-07-30T17:28:30.950Z,37.00
2018-07-30T17:30:35.515Z,37.20
2018-07-30T17:32:42.052Z,37.40
2018-07-30T17:34:46.660Z,37.30
2018-07-30T17:36:51.845Z,37.70
2018-07-30T17:38:56.408Z,37.80
2018-07-30T17:41:01.086Z,38.10
2018-07-30T17:43:05.938Z,38.20
2018-07-30T17:45:13.204Z,38.20
2018-07-30T17:47:17.682Z,38.20
2018-07-30T17:49:22.138Z,38.20
2018-07-30T17:51:26.561Z,38.30
2018-07-30T17:53:31.195Z,38.40
2018-07-30T17:55:35.717Z,38.50
2018-07-30T17:57:40.193Z,38.60
2018-07-30T17:59:44.702Z,38.80
2018-07-30T18:01:49.439Z,39.10
2018-07-30T18:03:54.075Z,39.90
2018-07-30T18:05:58.601Z,39.60
2018-07-30T18:08:03.075Z,39.60
2018-07-30T18:10:07.789Z,39.90
2018-07-30T18:12:13.030Z,39.80
2018-07-30T18:14:17.489Z,39.70
2018-07-30T18:16:22.089Z,40.10
2018-07-30T18:18:26.787Z,40.60
2018-07-30T18:20:31.218Z,40.50
2018-07-30T18:22:35.710Z,40.80
2018-07-30T18:24:40.308Z,41.40
2018-07-30T18:26:44.826Z,41.70
2018-07-30T18:30:53.406Z,42.40
2018-07-30T18:37:07.426Z,43.20
2018-07-30T18:41:18.091Z,43.90
2018-07-30T18:43:22.698Z,44.10
2018-07-30T18:45:27.344Z,44.30
2018-07-30T18:47:31.771Z,44.50
2018-07-30T18:51:40.994Z,44.90
2018-07-30T18:53:45.457Z,44.90
2018-07-30T18:55:50.863Z,44.80
2018-07-30T18:57:55.638Z,45.00
2018-07-30T19:00:00.772Z,45.10
2018-07-30T19:02:05.297Z,45.70
2018-07-30T19:04:10.357Z,45.50
2018-07-30T19:06:14.970Z,45.50
2018-07-30T19:08:19.991Z,45.70
2018-07-30T19:10:24.478Z,45.80
2018-07-30T19:12:29.457Z,46.10
2018-07-30T19:14:34.712Z,46.30
2018-07-30T19:16:39.299Z,46.60
2018-07-30T19:18:43.858Z,46.70
2018-07-30T19:20:48.403Z,47.00
2018-07-30T19:22:54.121Z,47.00
2018-07-30T19:25:02.502Z,47.10
2018-07-30T19:27:08.754Z,47.20
2018-07-30T19:29:13.894Z,47.20
2018-07-30T19:33:23.005Z,47.60
2018-07-30T19:35:27.950Z,47.30
2018-07-30T19:39:37.532Z,48.20
2018-07-30T19:41:42.094Z,47.80
2018-07-30T19:43:46.932Z,48.00
2018-07-30T19:45:51.428Z,48.10
2018-07-30T19:47:55.989Z,48.80
2018-07-30T19:50:00.453Z,48.40
2018-07-30T19:52:05.026Z,48.60
2018-07-30T19:54:09.449Z,48.60
2018-07-30T19:56:13.892Z,48.80
2018-07-30T19:58:18.502Z,48.80
2018-07-30T20:00:22.878Z,48.90
2018-07-30T20:02:27.310Z,49.00
2018-07-30T20:04:31.815Z,49.10
2018-07-30T20:06:36.318Z,49.40
2018-07-30T20:08:40.725Z,49.50
2018-07-30T20:10:45.209Z,49.80
2018-07-30T20:14:54.027Z,49.70
2018-07-30T20:16:58.541Z,49.90
2018-07-30T20:23:12.902Z,50.50
2018-07-30T20:25:17.369Z,50.70
2018-07-30T20:27:21.822Z,50.80
2018-07-30T20:29:26.258Z,51.90
2018-07-30T20:31:30.911Z,51.60
2018-07-30T20:33:35.723Z,51.40
2018-07-30T20:35:40.152Z,51.40
2018-07-30T20:37:45.547Z,51.20
2018-07-30T20:39:50.057Z,51.30
2018-07-30T20:41:55.651Z,51.40
2018-07-30T20:44:00.072Z,51.40
2018-07-30T20:46:04.586Z,51.30
2018-07-30T20:48:09.002Z,51.40
2018-07-30T20:50:13.609Z,51.50
2018-07-30T20:52:18.091Z,51.60
2018-07-30T20:54:22.527Z,51.60
2018-07-30T20:56:27.035Z,51.50
2018-07-30T20:58:31.578Z,51.50
2018-07-30T21:00:37.421Z,51.50
2018-07-30T21:02:42.013Z,51.60
2018-07-30T21:04:46.439Z,51.60
2018-07-30T21:06:50.921Z,51.70
2018-07-30T21:08:55.878Z,51.80
2018-07-30T21:11:00.298Z,51.50
2018-07-30T21:13:04.774Z,52.10
2018-07-30T21:15:09.246Z,52.10
2018-07-30T21:17:13.691Z,52.10
2018-07-30T21:19:18.134Z,52.10
2018-07-30T21:21:22.851Z,52.30
2018-07-30T21:23:27.594Z,52.50
2018-07-30T21:25:33.826Z,53.10
2018-07-30T21:27:38.581Z,52.50
2018-07-30T21:31:48.597Z,52.70
2018-07-30T21:33:53.223Z,52.80
2018-07-30T21:38:01.806Z,53.10
2018-07-30T21:40:06.455Z,53.20
2018-07-30T21:42:10.951Z,53.30
2018-07-30T21:44:15.407Z,53.30
2018-07-30T21:46:19.945Z,53.50
2018-07-30T21:48:24.367Z,53.60
2018-07-30T21:50:28.977Z,53.60
2018-07-30T21:52:33.450Z,53.80
2018-07-30T21:54:37.954Z,53.90
2018-07-30T21:56:42.458Z,54.10
2018-07-30T21:58:46.971Z,54.20
2018-07-30T22:00:57.377Z,54.30
2018-07-30T22:03:01.875Z,54.40
2018-07-30T22:05:11.234Z,54.60
2018-07-30T22:07:15.722Z,54.60
2018-07-30T22:09:20.152Z,54.60
2018-07-30T22:11:24.602Z,54.60
2018-07-30T22:13:29.197Z,54.70
2018-07-30T22:17:38.497Z,54.90
2018-07-30T22:19:43.055Z,55.00
2018-07-30T22:21:47.560Z,55.00
2018-07-30T22:25:56.653Z,55.30
2018-07-30T22:28:06.026Z,55.30
2018-07-30T22:30:12.402Z,55.40
2018-07-30T22:32:16.937Z,55.50
2018-07-30T22:34:21.363Z,55.50
2018-07-30T22:36:25.891Z,55.60
2018-07-30T22:38:30.362Z,55.70
2018-07-30T22:40:34.871Z,55.80
2018-07-30T22:44:43.787Z,55.90
2018-07-30T22:46:48.826Z,56.00
2018-07-30T22:48:53.256Z,56.10
2018-07-30T22:50:57.658Z,56.10
2018-07-30T22:53:02.103Z,56.10
2018-07-30T22:57:11.027Z,56.60
2018-07-30T22:59:15.432Z,56.20
2018-07-30T23:01:19.948Z,56.20
2018-07-30T23:03:24.570Z,56.30
2018-07-30T23:05:29.856Z,56.30
2018-07-30T23:09:38.536Z,56.40
2018-07-30T23:11:42.985Z,56.50
2018-07-30T23:13:47.485Z,56.50
2018-07-30T23:15:51.905Z,56.50
2018-07-30T23:17:56.364Z,56.60
2018-07-30T23:20:00.886Z,56.50
2018-07-30T23:22:05.334Z,56.60
2018-07-30T23:24:10.019Z,56.60
2018-07-30T23:26:14.510Z,57.20
2018-07-30T23:28:18.958Z,56.70
2018-07-30T23:30:23.407Z,56.70
2018-07-30T23:32:27.851Z,56.70
2018-07-30T23:34:32.299Z,56.70
2018-07-30T23:36:36.792Z,56.90
2018-07-30T23:38:41.214Z,57.00
2018-07-30T23:40:45.731Z,57.00
2018-07-30T23:42:50.154Z,57.10
2018-07-30T23:44:54.597Z,57.10
2018-07-30T23:46:59.020Z,57.10
2018-07-30T23:49:03.521Z,57.20
2018-07-30T23:51:07.967Z,57.20
2018-07-30T23:53:12.441Z,57.30
2018-07-30T23:55:16.887Z,57.40
2018-07-30T23:57:21.322Z,57.50
2018-07-30T23:59:25.841Z,57.50
